createdAt,value
2018-09-25T00:00:19.453Z,96.60
2018-09-25T00:02:52.636Z,96.40
2018-09-25T00:05:25.829Z,96.20
2018-09-25T00:07:59.120Z,96.00
2018-09-25T00:10:33.424Z,96.00
2018-09-25T00:13:07.126Z,96.10
2018-09-25T00:15:40.368Z,96.30
2018-09-25T00:18:13.470Z,96.40
2018-09-25T00:20:46.657Z,96.30
2018-09-25T00:23:19.960Z,96.10
2018-09-25T00:25:53.226Z,96.00
2018-09-25T00:28:26.417Z,96.10
2018-09-25T00:30:59.693Z,96.40
2018-09-25T00:33:32.862Z,96.30
2018-09-25T00:36:06.025Z,96.20
2018-09-25T00:38:39.200Z,96.30
2018-09-25T00:41:12.526Z,96.40
2018-09-25T00:43:45.651Z,96.30
2018-09-25T00:46:18.784Z,96.60
2018-09-25T00:48:52.075Z,96.70
2018-09-25T00:51:25.324Z,97.00
2018-09-25T00:53:58.596Z,97.00
2018-09-25T00:56:31.772Z,96.90
2018-09-25T00:59:04.957Z,96.70
2018-09-25T01:01:38.259Z,96.80
2018-09-25T01:04:12.094Z,96.90
2018-09-25T01:06:45.357Z,96.90
2018-09-25T01:14:00.408Z,97.20
2018-09-25T01:16:33.544Z,97.30
2018-09-25T01:19:06.926Z,97.40
2018-09-25T01:21:40.087Z,97.40
2018-09-25T01:24:13.283Z,97.40
2018-09-25T01:26:46.492Z,97.40
2018-09-25T01:29:19.670Z,97.40
2018-09-25T01:31:52.865Z,97.40
2018-09-25T01:34:25.924Z,97.40
2018-09-25T01:36:59.093Z,97.40
2018-09-25T01:39:32.297Z,97.40
2018-09-25T01:42:05.556Z,97.40
2018-09-25T01:44:38.867Z,97.40
2018-09-25T01:47:12.212Z,97.40
2018-09-25T01:49:45.460Z,97.40
2018-09-25T01:52:18.827Z,97.40
2018-09-25T01:54:52.132Z,97.40
2018-09-25T01:57:25.429Z,97.40
2018-09-25T01:59:58.694Z,97.40
2018-09-25T02:02:31.811Z,97.40
2018-09-25T02:05:04.936Z,97.40
2018-09-25T02:07:38.045Z,97.30
2018-09-25T02:10:11.484Z,97.20
2018-09-25T02:12:44.725Z,97.40
2018-09-25T02:15:17.901Z,97.40
2018-09-25T02:17:51.002Z,97.40
2018-09-25T02:20:24.253Z,97.40
2018-09-25T02:22:57.363Z,97.40
2018-09-25T02:25:30.488Z,97.40
2018-09-25T02:28:03.624Z,97.40
2018-09-25T02:30:36.759Z,97.40
2018-09-25T02:33:09.933Z,97.40
2018-09-25T02:35:43.129Z,97.40
2018-09-25T02:38:16.367Z,97.40
2018-09-25T02:40:49.592Z,97.40
2018-09-25T02:43:22.801Z,97.40
2018-09-25T02:45:56.058Z,97.40
2018-09-25T02:48:29.263Z,97.40
2018-09-25T02:51:02.416Z,97.40
2018-09-25T02:53:35.593Z,97.40
2018-09-25T02:56:08.688Z,97.40
2018-09-25T02:58:41.797Z,97.40
2018-09-25T03:01:15.061Z,97.40
2018-09-25T03:03:48.238Z,97.40
2018-09-25T03:06:21.361Z,97.40
2018-09-25T03:08:54.700Z,97.40
2018-09-25T03:11:27.817Z,97.40
2018-09-25T03:14:00.980Z,97.40
2018-09-25T03:16:34.069Z,97.40
2018-09-25T03:19:07.360Z,97.40
2018-09-25T03:21:40.505Z,97.40
2018-09-25T03:24:13.756Z,97.40
2018-09-25T03:26:46.924Z,97.40
2018-09-25T03:29:20.162Z,97.40
2018-09-25T03:31:53.345Z,97.40
2018-09-25T03:34:26.465Z,97.40
2018-09-25T03:36:59.685Z,97.40
2018-09-25T03:39:32.786Z,97.40
2018-09-25T03:42:06.036Z,97.40
2018-09-25T03:44:39.174Z,97.40
2018-09-25T03:47:12.597Z,97.40
2018-09-25T03:49:45.764Z,97.40
2018-09-25T03:52:18.981Z,97.40
2018-09-25T03:54:52.270Z,97.40
2018-09-25T03:57:25.580Z,97.40
2018-09-25T03:59:58.812Z,97.40
2018-09-25T04:02:31.929Z,97.40
2018-09-25T04:05:05.192Z,97.40
2018-09-25T04:07:38.366Z,97.40
2018-09-25T04:10:11.649Z,97.40
2018-09-25T04:12:44.815Z,97.40
2018-09-25T04:15:17.951Z,97.40
2018-09-25T04:17:51.228Z,97.40
2018-09-25T04:20:24.509Z,97.40
2018-09-25T04:22:57.801Z,97.40
2018-09-25T04:25:31.004Z,97.40
2018-09-25T04:28:04.194Z,97.40
2018-09-25T04:30:37.384Z,97.40
2018-09-25T04:33:10.758Z,97.40
2018-09-25T04:35:44.017Z,97.40
2018-09-25T04:38:17.273Z,97.40
2018-09-25T04:40:50.463Z,97.40
2018-09-25T04:43:23.709Z,97.40
2018-09-25T04:45:56.864Z,97.40
2018-09-25T04:48:30.051Z,97.40
2018-09-25T04:51:03.331Z,97.40
2018-09-25T04:53:36.569Z,97.40
2018-09-25T04:56:09.853Z,97.40
2018-09-25T04:58:43.194Z,97.40
2018-09-25T05:01:16.358Z,97.40
2018-09-25T05:03:49.583Z,97.40
2018-09-25T05:06:22.891Z,97.40
2018-09-25T05:08:56.150Z,97.40
2018-09-25T05:11:29.465Z,97.40
2018-09-25T05:14:02.771Z,97.40
2018-09-25T05:16:36.003Z,97.40
2018-09-25T05:19:09.254Z,97.40
2018-09-25T05:21:42.552Z,97.40
2018-09-25T05:24:15.921Z,97.40
2018-09-25T05:26:49.244Z,97.40
2018-09-25T05:29:22.412Z,97.40
2018-09-25T05:31:55.717Z,97.40
2018-09-25T05:34:28.913Z,97.40
2018-09-25T05:37:02.180Z,97.40
2018-09-25T05:39:35.493Z,97.40
2018-09-25T05:42:08.840Z,97.40
2018-09-25T05:44:41.994Z,97.40
2018-09-25T05:47:15.455Z,97.30
2018-09-25T05:49:48.705Z,93.80
2018-09-25T05:52:21.993Z,91.00
2018-09-25T05:54:55.253Z,86.40
2018-09-25T05:57:28.564Z,81.70
2018-09-25T06:00:01.832Z,78.60
2018-09-25T06:02:35.144Z,74.30
2018-09-25T06:05:08.453Z,71.70
2018-09-25T06:07:41.616Z,70.50
2018-09-25T06:10:14.937Z,69.80
2018-09-25T06:12:48.133Z,70.20
2018-09-25T06:15:21.344Z,65.70
2018-09-25T06:17:54.606Z,63.30
2018-09-25T06:20:27.805Z,62.30
2018-09-25T06:23:01.204Z,63.10
2018-09-25T06:25:34.428Z,62.20
2018-09-25T06:28:07.580Z,60.70
2018-09-25T06:30:40.799Z,60.10
2018-09-25T06:33:14.899Z,59.50
2018-09-25T06:35:48.209Z,56.30
2018-09-25T06:38:21.597Z,55.10
2018-09-25T06:40:54.858Z,55.20
2018-09-25T06:43:27.984Z,51.60
2018-09-25T06:46:01.259Z,52.30
2018-09-25T06:48:34.628Z,50.00
2018-09-25T06:51:07.936Z,47.90
2018-09-25T06:53:41.147Z,50.20
2018-09-25T06:56:14.412Z,52.50
2018-09-25T06:58:47.620Z,51.40
2018-09-25T07:01:20.785Z,52.90
2018-09-25T07:03:54.070Z,49.60
2018-09-25T07:06:27.360Z,49.70
2018-09-25T07:09:00.594Z,49.10
2018-09-25T07:11:33.757Z,46.70
2018-09-25T07:14:07.029Z,44.30
2018-09-25T07:16:40.290Z,45.00
2018-09-25T07:19:13.713Z,45.60
2018-09-25T07:21:46.780Z,46.80
2018-09-25T07:24:20.185Z,46.80
2018-09-25T07:26:53.524Z,45.80
2018-09-25T07:29:33.636Z,46.40
2018-09-25T07:32:06.941Z,45.60
2018-09-25T07:34:40.513Z,45.30
2018-09-25T07:37:13.762Z,43.00
2018-09-25T07:39:47.071Z,44.90
2018-09-25T07:42:20.513Z,45.20
2018-09-25T07:44:53.925Z,44.30
2018-09-25T07:47:27.311Z,44.70
2018-09-25T07:50:00.556Z,41.70
2018-09-25T07:52:33.862Z,39.80
2018-09-25T07:55:07.162Z,38.80
2018-09-25T07:57:40.346Z,38.60
2018-09-25T08:00:13.632Z,38.50
2018-09-25T08:02:46.869Z,38.60
2018-09-25T08:05:20.002Z,34.80
2018-09-25T08:07:53.358Z,35.40
2018-09-25T08:10:26.592Z,30.20
2018-09-25T08:12:59.857Z,29.60
2018-09-25T08:15:33.224Z,28.60
2018-09-25T08:18:06.679Z,29.80
2018-09-25T08:20:39.953Z,32.40
2018-09-25T08:23:13.393Z,26.90
2018-09-25T08:25:46.700Z,26.40
2018-09-25T08:28:20.175Z,26.40
2018-09-25T08:30:53.397Z,24.10
2018-09-25T08:33:26.573Z,27.30
2018-09-25T08:35:59.742Z,24.90
2018-09-25T08:38:32.995Z,23.10
2018-09-25T08:41:06.171Z,25.10
2018-09-25T08:43:39.302Z,25.30
2018-09-25T08:46:12.612Z,25.10
2018-09-25T08:48:45.863Z,24.40
2018-09-25T08:51:19.126Z,23.30
2018-09-25T08:53:52.369Z,25.30
2018-09-25T08:56:25.538Z,24.20
2018-09-25T08:58:58.725Z,22.40
2018-09-25T09:01:31.989Z,25.10
2018-09-25T09:04:05.156Z,23.70
2018-09-25T09:06:38.327Z,22.90
2018-09-25T09:09:13.794Z,20.90
2018-09-25T09:11:47.651Z,21.40
2018-09-25T09:14:20.829Z,24.30
2018-09-25T09:16:53.996Z,23.80
2018-09-25T09:19:27.231Z,20.70
2018-09-25T09:22:00.349Z,21.20
2018-09-25T09:24:33.545Z,21.70
2018-09-25T09:27:06.731Z,20.70
2018-09-25T09:29:39.967Z,21.10
2018-09-25T09:32:13.159Z,21.50
2018-09-25T09:34:46.350Z,23.00
2018-09-25T09:37:19.557Z,20.00
2018-09-25T09:39:52.850Z,19.70
2018-09-25T09:42:26.060Z,20.00
2018-09-25T09:44:59.221Z,18.90
2018-09-25T09:47:32.413Z,21.00
2018-09-25T09:50:05.660Z,21.30
2018-09-25T09:52:38.913Z,20.10
2018-09-25T09:55:12.735Z,22.20
2018-09-25T09:57:45.916Z,19.40
2018-09-25T10:00:19.183Z,18.00
2018-09-25T10:02:52.415Z,19.20
2018-09-25T10:05:25.585Z,18.70
2018-09-25T10:07:58.778Z,18.40
2018-09-25T10:10:31.965Z,17.60
2018-09-25T10:13:05.301Z,18.40
2018-09-25T10:15:38.515Z,20.10
2018-09-25T10:18:11.765Z,19.90
2018-09-25T10:20:44.996Z,21.90
2018-09-25T10:23:18.115Z,21.50
2018-09-25T10:25:51.411Z,20.50
2018-09-25T10:28:24.700Z,21.30
2018-09-25T10:30:57.958Z,18.20
2018-09-25T10:33:31.015Z,17.50
2018-09-25T10:36:04.223Z,16.70
2018-09-25T10:38:37.401Z,17.10
2018-09-25T10:41:10.489Z,17.00
2018-09-25T10:43:43.748Z,16.60
2018-09-25T10:46:16.898Z,17.20
2018-09-25T10:48:50.049Z,17.10
2018-09-25T10:51:23.243Z,18.00
2018-09-25T10:53:56.519Z,19.90
2018-09-25T10:56:29.757Z,21.70
2018-09-25T10:59:03.033Z,22.90
2018-09-25T11:01:36.267Z,23.30
2018-09-25T11:04:09.489Z,23.40
2018-09-25T11:06:42.669Z,23.50
2018-09-25T11:09:15.976Z,22.40
2018-09-25T11:11:49.282Z,22.30
2018-09-25T11:14:22.611Z,21.40
2018-09-25T11:16:55.756Z,20.40
2018-09-25T11:19:29.117Z,18.80
2018-09-25T11:22:02.232Z,18.70
2018-09-25T11:24:35.451Z,18.30
2018-09-25T11:27:08.737Z,20.30
2018-09-25T11:29:41.935Z,20.00
2018-09-25T11:32:15.161Z,18.90
2018-09-25T11:34:48.406Z,17.00
2018-09-25T11:37:21.525Z,18.20
2018-09-25T11:39:54.696Z,15.20
2018-09-25T11:42:27.985Z,15.50
2018-09-25T11:45:01.161Z,15.70
2018-09-25T11:47:34.408Z,18.10
2018-09-25T11:50:07.712Z,18.30
2018-09-25T11:52:40.897Z,18.80
2018-09-25T11:55:14.052Z,18.90
2018-09-25T11:57:47.254Z,18.80
2018-09-25T12:00:20.665Z,18.80
2018-09-25T12:02:53.733Z,19.50
2018-09-25T12:05:27.078Z,16.30
2018-09-25T12:08:00.205Z,15.20
2018-09-25T12:10:33.329Z,15.60
2018-09-25T12:13:06.594Z,16.60
2018-09-25T12:15:39.820Z,17.10
2018-09-25T12:18:13.005Z,18.30
2018-09-25T12:20:46.213Z,18.50
2018-09-25T12:23:19.510Z,20.30
2018-09-25T12:25:52.704Z,19.70
2018-09-25T12:28:25.928Z,18.30
2018-09-25T12:30:59.254Z,18.40
2018-09-25T12:33:32.455Z,20.00
2018-09-25T12:36:05.755Z,21.40
2018-09-25T12:38:38.889Z,20.90
2018-09-25T12:41:12.166Z,21.50
2018-09-25T12:43:45.348Z,20.30
2018-09-25T12:46:18.627Z,18.80
2018-09-25T12:48:51.756Z,19.40
2018-09-25T12:51:24.874Z,19.60
2018-09-25T12:53:58.132Z,18.80
2018-09-25T12:56:31.301Z,15.90
2018-09-25T12:59:04.457Z,15.60
2018-09-25T13:01:37.747Z,14.50
2018-09-25T13:04:11.336Z,15.40
2018-09-25T13:06:44.581Z,13.80
2018-09-25T13:09:17.832Z,15.00
2018-09-25T13:11:50.976Z,16.60
2018-09-25T13:14:24.184Z,18.20
2018-09-25T13:16:57.442Z,18.80
2018-09-25T13:19:30.770Z,17.40
2018-09-25T13:22:03.904Z,15.80
2018-09-25T13:24:37.086Z,16.70
2018-09-25T13:27:10.268Z,17.40
2018-09-25T13:29:43.488Z,17.00
2018-09-25T13:32:16.797Z,17.70
2018-09-25T13:34:49.972Z,17.00
2018-09-25T13:37:23.142Z,14.60
2018-09-25T13:39:56.345Z,15.50
2018-09-25T13:42:29.498Z,14.90
2018-09-25T13:45:02.800Z,14.50
2018-09-25T13:47:35.958Z,14.70
2018-09-25T13:50:09.200Z,16.30
2018-09-25T13:52:42.399Z,17.40
2018-09-25T13:55:15.626Z,17.20
2018-09-25T13:57:48.804Z,16.10
2018-09-25T14:00:22.055Z,18.30
2018-09-25T14:02:55.205Z,18.00
2018-09-25T14:05:28.369Z,18.20
2018-09-25T14:08:01.593Z,18.20
2018-09-25T14:10:34.844Z,17.80
2018-09-25T14:13:08.025Z,20.80
2018-09-25T14:15:41.305Z,18.20
2018-09-25T14:18:14.466Z,19.10
2018-09-25T14:20:47.708Z,19.50
2018-09-25T14:23:20.944Z,17.90
2018-09-25T14:25:54.239Z,18.90
2018-09-25T14:28:27.496Z,19.60
2018-09-25T14:31:00.698Z,17.40
2018-09-25T14:33:33.929Z,17.90
2018-09-25T14:36:07.065Z,19.10
2018-09-25T14:38:40.179Z,18.50
2018-09-25T14:41:13.360Z,18.30
2018-09-25T14:43:46.446Z,19.50
2018-09-25T14:46:19.880Z,18.00
2018-09-25T14:48:53.038Z,16.60
2018-09-25T14:51:26.236Z,17.70
2018-09-25T14:53:59.479Z,16.80
2018-09-25T14:56:32.732Z,18.00
2018-09-25T14:59:05.912Z,18.70
2018-09-25T15:01:39.171Z,17.50
2018-09-25T15:04:12.432Z,17.60
2018-09-25T15:06:45.549Z,18.10
2018-09-25T15:09:18.775Z,16.50
2018-09-25T15:11:52.012Z,17.30
2018-09-25T15:14:25.165Z,17.70
2018-09-25T15:16:58.481Z,18.30
2018-09-25T15:19:31.791Z,19.10
2018-09-25T15:22:05.210Z,19.40
2018-09-25T15:24:38.169Z,19.40
2018-09-25T15:27:11.608Z,17.80
2018-09-25T15:29:44.904Z,17.10
2018-09-25T15:32:18.149Z,16.70
2018-09-25T15:34:51.267Z,17.10
2018-09-25T15:37:24.434Z,17.70
2018-09-25T15:39:57.629Z,18.90
2018-09-25T15:42:30.914Z,19.60
2018-09-25T15:45:04.199Z,19.80
2018-09-25T15:47:37.518Z,20.70
2018-09-25T15:50:10.732Z,20.70
2018-09-25T15:52:43.861Z,21.70
2018-09-25T15:55:17.077Z,21.50
2018-09-25T15:57:50.308Z,22.20
2018-09-25T16:00:23.452Z,22.90
2018-09-25T16:02:56.577Z,21.40
2018-09-25T16:05:29.916Z,20.50
2018-09-25T16:08:03.175Z,19.70
2018-09-25T16:10:36.439Z,20.40
2018-09-25T16:13:09.677Z,21.10
2018-09-25T16:15:43.046Z,22.30
2018-09-25T16:18:16.209Z,22.30
2018-09-25T16:20:49.459Z,21.20
2018-09-25T16:23:22.617Z,22.40
2018-09-25T16:25:55.863Z,22.80
2018-09-25T16:28:29.103Z,22.20
2018-09-25T16:31:02.399Z,22.10
2018-09-25T16:33:35.576Z,22.30
2018-09-25T16:36:08.740Z,22.80
2018-09-25T16:38:42.072Z,24.50
2018-09-25T16:41:15.485Z,25.00
2018-09-25T16:43:48.809Z,26.50
2018-09-25T16:46:22.569Z,25.50
2018-09-25T16:48:55.770Z,25.50
2018-09-25T16:51:28.967Z,26.00
2018-09-25T16:54:02.195Z,27.90
2018-09-25T16:56:35.518Z,27.70
2018-09-25T16:59:08.682Z,29.10
2018-09-25T17:01:42.003Z,30.40
2018-09-25T17:04:15.210Z,31.00
2018-09-25T17:06:48.510Z,31.30
2018-09-25T17:09:21.720Z,32.80
2018-09-25T17:11:54.896Z,33.40
2018-09-25T17:14:28.176Z,34.50
2018-09-25T17:17:01.419Z,35.70
2018-09-25T17:19:34.735Z,38.20
2018-09-25T17:22:07.986Z,38.00
2018-09-25T17:24:41.262Z,36.90
2018-09-25T17:27:14.460Z,37.70
2018-09-25T17:29:47.661Z,39.20
2018-09-25T17:32:20.797Z,38.80
2018-09-25T17:34:54.004Z,39.40
2018-09-25T17:37:27.243Z,40.60
2018-09-25T17:40:00.386Z,41.10
2018-09-25T17:42:33.572Z,41.70
2018-09-25T17:45:06.813Z,42.40
2018-09-25T17:47:39.988Z,42.60
2018-09-25T17:50:13.174Z,43.60
2018-09-25T17:52:46.334Z,43.50
2018-09-25T17:55:19.431Z,45.30
2018-09-25T17:57:52.663Z,44.90
2018-09-25T18:00:25.882Z,45.00
2018-09-25T18:02:59.113Z,45.00
2018-09-25T18:05:32.285Z,45.30
2018-09-25T18:08:05.554Z,45.90
2018-09-25T18:10:38.674Z,46.40
2018-09-25T18:13:11.929Z,47.80
2018-09-25T18:15:45.063Z,49.10
2018-09-25T18:18:18.265Z,49.40
2018-09-25T18:20:51.446Z,53.40
2018-09-25T18:23:24.655Z,53.10
2018-09-25T18:25:57.800Z,52.60
2018-09-25T18:28:30.969Z,51.00
2018-09-25T18:31:04.182Z,50.50
2018-09-25T18:33:37.590Z,50.30
2018-09-25T18:36:10.807Z,51.00
2018-09-25T18:38:43.938Z,51.10
2018-09-25T18:41:17.149Z,51.10
2018-09-25T18:43:50.306Z,51.70
2018-09-25T18:46:23.478Z,53.20
2018-09-25T18:48:56.693Z,54.00
2018-09-25T18:51:29.919Z,55.40
2018-09-25T18:54:03.011Z,55.40
2018-09-25T18:56:36.202Z,54.60
2018-09-25T18:59:09.323Z,56.30
2018-09-25T19:01:42.508Z,56.60
2018-09-25T19:04:15.767Z,57.40
2018-09-25T19:06:48.939Z,58.40
2018-09-25T19:09:22.634Z,58.60
2018-09-25T19:12:32.355Z,60.70
2018-09-25T19:15:07.011Z,61.80
2018-09-25T19:17:40.241Z,61.00
2018-09-25T19:20:13.518Z,61.80
2018-09-25T19:22:46.916Z,62.00
2018-09-25T19:25:20.158Z,61.20
2018-09-25T19:27:53.603Z,60.70
2018-09-25T19:30:26.782Z,61.20
2018-09-25T19:32:59.869Z,61.60
2018-09-25T19:35:33.065Z,61.00
2018-09-25T19:38:06.226Z,59.80
2018-09-25T19:40:39.437Z,59.60
2018-09-25T19:43:12.744Z,60.10
2018-09-25T19:45:45.986Z,60.50
2018-09-25T19:48:19.220Z,60.90
2018-09-25T19:50:52.541Z,61.60
2018-09-25T19:53:25.670Z,62.50
2018-09-25T19:55:58.955Z,62.30
2018-09-25T19:58:32.317Z,64.00
2018-09-25T20:01:05.566Z,62.30
2018-09-25T20:03:38.693Z,62.00
2018-09-25T20:06:11.878Z,62.30
2018-09-25T20:08:44.973Z,63.10
2018-09-25T20:11:18.188Z,62.90
2018-09-25T20:13:51.486Z,62.50
2018-09-25T20:16:24.664Z,62.00
2018-09-25T20:18:57.790Z,62.20
2018-09-25T20:21:30.882Z,62.50
2018-09-25T20:24:04.073Z,64.00
2018-09-25T20:26:37.383Z,64.40
2018-09-25T20:29:10.876Z,65.90
2018-09-25T20:31:44.047Z,66.60
2018-09-25T20:34:17.270Z,66.40
2018-09-25T20:36:50.392Z,66.80
2018-09-25T20:39:23.772Z,65.90
2018-09-25T20:41:56.964Z,65.10
2018-09-25T20:44:30.269Z,66.40
2018-09-25T20:47:03.472Z,67.20
2018-09-25T20:49:36.647Z,71.10
2018-09-25T20:52:09.825Z,67.20
2018-09-25T20:54:43.141Z,67.40
2018-09-25T20:57:16.330Z,68.10
2018-09-25T20:59:49.521Z,67.70
2018-09-25T21:02:22.706Z,67.70
2018-09-25T21:04:55.935Z,67.70
2018-09-25T21:07:29.128Z,67.70
2018-09-25T21:10:02.426Z,67.20
2018-09-25T21:12:35.521Z,68.30
2018-09-25T21:15:08.930Z,69.20
2018-09-25T21:17:42.185Z,69.60
2018-09-25T21:20:15.540Z,69.60
2018-09-25T21:22:48.844Z,72.00
2018-09-25T21:25:21.972Z,73.30
2018-09-25T21:27:55.146Z,72.80
2018-09-25T21:30:28.388Z,73.50
2018-09-25T21:33:01.557Z,73.50
2018-09-25T21:35:34.737Z,74.10
2018-09-25T21:38:08.033Z,75.00
2018-09-25T21:40:41.189Z,75.20
2018-09-25T21:43:14.472Z,76.70
2018-09-25T21:45:47.615Z,78.00
2018-09-25T21:48:20.880Z,79.10
2018-09-25T21:50:54.077Z,78.60
2018-09-25T21:53:27.334Z,79.90
2018-09-25T21:56:00.464Z,80.20
2018-09-25T21:58:33.668Z,79.90
2018-09-25T22:01:06.876Z,79.50
2018-09-25T22:03:40.231Z,79.70
2018-09-25T22:06:13.432Z,79.50
2018-09-25T22:08:46.617Z,86.20
2018-09-25T22:11:19.974Z,85.50
2018-09-25T22:13:53.159Z,82.10
2018-09-25T22:16:26.436Z,80.60
2018-09-25T22:18:59.637Z,79.30
2018-09-25T22:21:32.884Z,79.10
2018-09-25T22:24:06.183Z,78.90
2018-09-25T22:26:39.394Z,80.60
2018-09-25T22:29:12.754Z,80.60
2018-09-25T22:31:46.039Z,82.30
2018-09-25T22:34:19.246Z,82.50
2018-09-25T22:36:52.463Z,82.30
2018-09-25T22:39:25.756Z,83.00
2018-09-25T22:41:58.935Z,83.40
2018-09-25T22:44:32.238Z,83.20
2018-09-25T22:47:05.416Z,82.70
2018-09-25T22:49:38.622Z,83.60
2018-09-25T22:52:11.832Z,83.00
2018-09-25T22:54:45.111Z,83.20
2018-09-25T22:57:18.293Z,84.00
2018-09-25T22:59:51.581Z,84.50
2018-09-25T23:02:24.833Z,84.90
2018-09-25T23:04:58.105Z,85.50
2018-09-25T23:07:31.263Z,84.50
2018-09-25T23:10:04.493Z,84.70
2018-09-25T23:12:38.524Z,85.10
2018-09-25T23:15:11.780Z,85.10
2018-09-25T23:17:45.007Z,86.20
2018-09-25T23:20:18.321Z,86.20
2018-09-25T23:22:58.575Z,87.10
2018-09-25T23:25:31.691Z,87.30
2018-09-25T23:28:04.955Z,86.60
2018-09-25T23:30:38.023Z,86.90
2018-09-25T23:33:11.270Z,87.30
2018-09-25T23:35:44.538Z,87.50
2018-09-25T23:38:17.838Z,87.90
2018-09-25T23:40:51.058Z,87.10
2018-09-25T23:45:29.219Z,87.70
2018-09-25T23:48:00.500Z,87.10
2018-09-25T23:50:33.719Z,88.60
2018-09-25T23:53:09.767Z,88.80
2018-09-25T23:56:14.576Z,88.60
2018-09-25T23:58:48.392Z,89.20
